createdAt,value
2022-12-01T00:00:35.178Z,102278.56
2022-12-01T00:01:39.530Z,102272.84
2022-12-01T00:02:44.231Z,102272.52
2022-12-01T00:03:48.745Z,102275.64
2022-12-01T00:04:53.060Z,102269.79
2022-12-01T00:05:57.299Z,102266.55
2022-12-01T00:07:01.531Z,102276.72
2022-12-01T00:08:05.901Z,102266.09
2022-12-01T00:09:12.215Z,102269.19
2022-12-01T00:10:22.990Z,102268.37
2022-12-01T00:11:27.215Z,102266.24
2022-12-01T00:12:31.535Z,102264.3
2022-12-01T00:13:35.763Z,102261.3
2022-12-01T00:14:40.041Z,102265.32
2022-12-01T00:15:44.258Z,102272.81
2022-12-01T00:16:48.725Z,102265.56
2022-12-01T00:17:53.063Z,102263.2
2022-12-01T00:18:57.307Z,102268.82
2022-12-01T00:20:01.553Z,102265.77
2022-12-01T00:21:05.776Z,102265.32
2022-12-01T00:22:10.023Z,102264.91
2022-12-01T00:23:14.263Z,102268.27
2022-12-01T00:24:18.498Z,102261.17
2022-12-01T00:25:22.725Z,102263.33
2022-12-01T00:26:26.956Z,102271.55
2022-12-01T00:27:31.177Z,102272.1
2022-12-01T00:28:35.406Z,102264.48
2022-12-01T00:29:39.625Z,102264.41
2022-12-01T00:30:43.848Z,102269.66
2022-12-01T00:31:48.472Z,102266.38
2022-12-01T00:32:52.815Z,102263.98
2022-12-01T00:33:57.067Z,102261.63
2022-12-01T00:35:01.278Z,102263.25
2022-12-01T00:36:05.509Z,102263.8
2022-12-01T00:37:09.755Z,102262.83
2022-12-01T00:38:13.980Z,102264.03
2022-12-01T00:39:18.235Z,102261.26
2022-12-01T00:40:22.486Z,102259.23
2022-12-01T00:41:26.721Z,102262.73
2022-12-01T00:42:30.943Z,102255.16
2022-12-01T00:43:35.182Z,102259.96
2022-12-01T00:44:39.450Z,102253.87
2022-12-01T00:45:43.884Z,102259.91
2022-12-01T00:46:48.231Z,102254.98
2022-12-01T00:47:52.433Z,102256.73
2022-12-01T00:48:56.678Z,102257.89
2022-12-01T00:50:00.878Z,102251.14
2022-12-01T00:51:05.151Z,102256.87
2022-12-01T00:52:09.362Z,102253.69
2022-12-01T00:53:13.607Z,102257.97
2022-12-01T00:54:17.858Z,102257.89
2022-12-01T00:55:22.097Z,102255.81
2022-12-01T00:56:26.323Z,102255.53
2022-12-01T00:57:30.538Z,102256.27
2022-12-01T00:58:34.785Z,102255.95
2022-12-01T00:59:39.007Z,102255.95
2022-12-01T01:00:43.286Z,102252.91
2022-12-01T01:01:47.810Z,102256.05
2022-12-01T01:02:52.253Z,102247.97
2022-12-01T01:03:56.624Z,102257.67
2022-12-01T01:05:00.925Z,102258.23
2022-12-01T01:06:05.134Z,102251.11
2022-12-01T01:07:09.394Z,102254.84
2022-12-01T01:08:13.617Z,102253.92
2022-12-01T01:09:17.869Z,102249.86
2022-12-01T01:10:22.119Z,102248.62
2022-12-01T01:11:26.349Z,102251.61
2022-12-01T01:12:30.583Z,102253.37
2022-12-01T01:13:34.800Z,102251.75
2022-12-01T01:14:39.053Z,102247.88
2022-12-01T01:15:43.328Z,102247.83
2022-12-01T01:16:47.671Z,102251.61
2022-12-01T01:17:51.999Z,102250.46
2022-12-01T01:18:56.225Z,102246.02
2022-12-01T01:20:00.466Z,102245.05
2022-12-01T01:21:04.785Z,102251.06
2022-12-01T01:22:09.015Z,102245.29
2022-12-01T01:23:13.247Z,102248.8
2022-12-01T01:24:18.480Z,102243.95
2022-12-01T01:25:22.709Z,102246.63
2022-12-01T01:26:26.934Z,102242.61
2022-12-01T01:27:31.165Z,102242.11
2022-12-01T01:28:35.401Z,102243.81
2022-12-01T01:29:39.608Z,102237.72
2022-12-01T01:30:43.945Z,102242.61
2022-12-01T01:31:48.368Z,102239.98
2022-12-01T01:32:52.591Z,102243.95
2022-12-01T01:33:56.794Z,102239.25
2022-12-01T01:35:01.029Z,102244.55
2022-12-01T01:36:05.280Z,102248.38
2022-12-01T01:37:09.509Z,102240.64
2022-12-01T01:38:13.723Z,102243.13
2022-12-01T01:39:17.957Z,102245.76
2022-12-01T01:40:22.169Z,102239.66
2022-12-01T01:41:26.406Z,102240.17
2022-12-01T01:42:30.661Z,102238.14
2022-12-01T01:43:34.883Z,102236.8
2022-12-01T01:44:39.130Z,102238.7
2022-12-01T01:45:43.482Z,102235.52
2022-12-01T01:46:47.858Z,102235.23
2022-12-01T01:47:52.084Z,102240.03
2022-12-01T01:48:56.315Z,102243.77
2022-12-01T01:50:00.550Z,102234.49
2022-12-01T01:51:04.763Z,102236.34
2022-12-01T01:52:08.985Z,102234.26
2022-12-01T01:53:13.188Z,102230.61
2022-12-01T01:54:17.497Z,102236.98
2022-12-01T01:55:21.729Z,102238.43
2022-12-01T01:56:25.991Z,102230.53
2022-12-01T01:57:30.231Z,102236.3
2022-12-01T01:58:34.431Z,102236.8
2022-12-01T01:59:38.649Z,102240.27
2022-12-01T02:00:42.893Z,102240.45
2022-12-01T02:01:47.402Z,102244.16
2022-12-01T02:02:51.897Z,102243.23
2022-12-01T02:03:56.224Z,102232.61
2022-12-01T02:05:00.479Z,102239.48
2022-12-01T02:06:06.201Z,102232.47
2022-12-01T02:07:10.425Z,102239.72
2022-12-01T02:08:14.636Z,102245.08
2022-12-01T02:09:18.882Z,102242.91
2022-12-01T02:10:23.141Z,102242.77
2022-12-01T02:11:27.384Z,102243.41
2022-12-01T02:12:31.600Z,102248.27
2022-12-01T02:13:35.885Z,102233.39
2022-12-01T02:14:40.133Z,102240
2022-12-01T02:15:44.362Z,102239.91
2022-12-01T02:16:48.763Z,102235.75
2022-12-01T02:17:53.133Z,102241.58
2022-12-01T02:18:57.374Z,102238.98
2022-12-01T02:20:01.619Z,102237.19
2022-12-01T02:21:05.870Z,102238.43
2022-12-01T02:22:10.092Z,102243.83
2022-12-01T02:23:14.390Z,102241.58
2022-12-01T02:24:18.636Z,102235.8
2022-12-01T02:25:22.881Z,102245.96
2022-12-01T02:26:27.078Z,102242.39
2022-12-01T02:27:31.316Z,102248.17
2022-12-01T02:28:35.568Z,102241.16
2022-12-01T02:29:39.800Z,102241.7
2022-12-01T02:30:44.147Z,102246.75
2022-12-01T02:31:48.539Z,102239.03
2022-12-01T02:32:52.762Z,102244.44
2022-12-01T02:33:56.983Z,102247.02
2022-12-01T02:35:01.241Z,102244.76
2022-12-01T02:36:05.457Z,102250.58
2022-12-01T02:37:09.744Z,102249.74
2022-12-01T02:38:13.982Z,102248.77
2022-12-01T02:39:18.228Z,102248.41
2022-12-01T02:40:22.497Z,102252.73
2022-12-01T02:41:26.726Z,102245.17
2022-12-01T02:42:30.974Z,102242.63
2022-12-01T02:43:35.203Z,102242.63
2022-12-01T02:44:39.463Z,102239.58
2022-12-01T02:45:43.876Z,102240.13
2022-12-01T02:46:48.167Z,102242.36
2022-12-01T02:47:52.414Z,102244.2
2022-12-01T02:48:56.634Z,102242.27
2022-12-01T02:50:00.919Z,102242.81
2022-12-01T02:51:05.149Z,102248.17
2022-12-01T02:52:09.415Z,102245.64
2022-12-01T02:53:13.647Z,102243.7
2022-12-01T02:54:17.880Z,102244.8
2022-12-01T02:55:22.083Z,102240.42
2022-12-01T02:56:26.297Z,102236.22
2022-12-01T02:57:30.530Z,102235.39
2022-12-01T02:58:34.762Z,102238.39
2022-12-01T02:59:39.026Z,102238.34
2022-12-01T03:00:43.278Z,102244.48
2022-12-01T03:01:47.634Z,102242.78
2022-12-01T03:02:52.051Z,102244.11
2022-12-01T03:03:56.501Z,102248.45
2022-12-01T03:05:00.722Z,102243.14
2022-12-01T03:06:04.979Z,102241.48
2022-12-01T03:07:09.195Z,102241.3
2022-12-01T03:08:13.437Z,102237.94
2022-12-01T03:09:17.674Z,102240.14
2022-12-01T03:10:21.901Z,102237.7
2022-12-01T03:11:26.152Z,102236.69
2022-12-01T03:12:30.582Z,102233.83
2022-12-01T03:13:34.797Z,102228.97
2022-12-01T03:14:39.061Z,102220.85
2022-12-01T03:15:43.435Z,102229.44
2022-12-01T03:16:47.781Z,102232.66
2022-12-01T03:17:52.077Z,102231.33
2022-12-01T03:18:56.337Z,102230.77
2022-12-01T03:20:00.583Z,102236.55
2022-12-01T03:21:04.815Z,102230.27
2022-12-01T03:22:09.034Z,102231.8
2022-12-01T03:23:13.233Z,102226.44
2022-12-01T03:24:17.477Z,102237.33
2022-12-01T03:25:21.976Z,102229.53
2022-12-01T03:26:26.198Z,102229.8
2022-12-01T03:27:30.440Z,102233
2022-12-01T03:28:34.680Z,102227.36
2022-12-01T03:29:38.878Z,102233.13
2022-12-01T03:30:43.110Z,102231.61
2022-12-01T03:31:47.542Z,102229.91
2022-12-01T03:32:51.980Z,102228.88
2022-12-01T03:33:56.223Z,102224.91
2022-12-01T03:35:00.489Z,102227.91
2022-12-01T03:36:04.702Z,102225.28
2022-12-01T03:37:08.957Z,102231.56
2022-12-01T03:38:13.187Z,102227.13
2022-12-01T03:39:17.437Z,102229.67
2022-12-01T03:40:21.658Z,102233.45
2022-12-01T03:41:26.178Z,102237.47
2022-12-01T03:42:30.424Z,102230.53
2022-12-01T03:43:34.686Z,102229.48
2022-12-01T03:44:38.880Z,102228.94
2022-12-01T03:45:43.162Z,102229.2
2022-12-01T03:46:47.393Z,102228.83
2022-12-01T03:47:51.621Z,102227.49
2022-12-01T03:48:55.885Z,102225.42
2022-12-01T03:50:00.098Z,102229.62
2022-12-01T03:51:04.328Z,102229.11
2022-12-01T03:52:08.538Z,102230.82
2022-12-01T03:53:12.756Z,102228.98
2022-12-01T03:54:16.985Z,102224.23
2022-12-01T03:55:21.219Z,102224.68
2022-12-01T03:56:25.446Z,102229.48
2022-12-01T03:57:29.742Z,102220.53
2022-12-01T03:58:33.982Z,102222
2022-12-01T03:59:38.218Z,102219.42
2022-12-01T04:00:42.456Z,102215.31
2022-12-01T04:01:46.835Z,102213.89
2022-12-01T04:02:51.432Z,102214.76
2022-12-01T04:03:55.827Z,102213.84
2022-12-01T04:05:00.070Z,102212.05
2022-12-01T04:06:04.280Z,102217.48
2022-12-01T04:07:08.488Z,102209.92
2022-12-01T04:08:12.885Z,102212.05
2022-12-01T04:09:17.166Z,102215.64
2022-12-01T04:10:21.372Z,102209.73
2022-12-01T04:11:32.903Z,102210.28
2022-12-01T04:12:37.300Z,102211.67
2022-12-01T04:13:41.562Z,102208.34
2022-12-01T04:14:45.825Z,102204.97
2022-12-01T04:15:50.236Z,102215.67
2022-12-01T04:16:54.650Z,102212.31
2022-12-01T04:17:58.877Z,102207.24
2022-12-01T04:19:03.098Z,102210.84
2022-12-01T04:20:07.348Z,102207.8
2022-12-01T04:21:11.585Z,102215.5
2022-12-01T04:22:15.790Z,102212.87
2022-12-01T04:23:20.008Z,102214.95
2022-12-01T04:24:24.210Z,102212.59
2022-12-01T04:25:28.488Z,102210.19
2022-12-01T04:26:32.729Z,102213.52
2022-12-01T04:27:37.042Z,102208.27
2022-12-01T04:28:41.254Z,102212.91
2022-12-01T04:29:45.460Z,102209.13
2022-12-01T04:30:50.045Z,102207.24
2022-12-01T04:31:54.645Z,102219.34
2022-12-01T04:32:58.895Z,102207.42
2022-12-01T04:34:03.155Z,102211.39
2022-12-01T04:35:07.365Z,102217.03
2022-12-01T04:36:11.618Z,102213.84
2022-12-01T04:37:15.872Z,102214.8
2022-12-01T04:38:20.125Z,102220.63
2022-12-01T04:39:26.335Z,102215.32
2022-12-01T04:40:30.578Z,102215.45
2022-12-01T04:41:34.799Z,102212.64
2022-12-01T04:42:39.033Z,102217.58
2022-12-01T04:43:43.234Z,102216.24
2022-12-01T04:44:47.464Z,102220.44
2022-12-01T04:45:51.696Z,102220.34
2022-12-01T04:46:56.078Z,102229.21
2022-12-01T04:48:00.544Z,102226.06
2022-12-01T04:49:04.754Z,102223.48
2022-12-01T04:50:09.001Z,102224.17
2022-12-01T04:51:13.239Z,102226.17
2022-12-01T04:52:17.466Z,102224.54
2022-12-01T04:53:21.735Z,102221.96
2022-12-01T04:54:26.389Z,102219.34
2022-12-01T04:55:30.621Z,102224.27
2022-12-01T04:56:34.867Z,102226.11
2022-12-01T04:57:39.091Z,102221.96
2022-12-01T04:58:43.324Z,102220.53
2022-12-01T04:59:48.261Z,102218.59
2022-12-01T05:00:53.389Z,102223.21
2022-12-01T05:01:57.992Z,102226.94
2022-12-01T05:03:02.388Z,102227.27
2022-12-01T05:04:06.658Z,102223.2
2022-12-01T05:05:10.885Z,102226.9
2022-12-01T05:06:15.124Z,102220.39
2022-12-01T05:07:19.436Z,102225.19
2022-12-01T05:08:23.728Z,102227.36
2022-12-01T05:09:27.951Z,102230.13
2022-12-01T05:10:32.181Z,102233.44
2022-12-01T05:11:36.434Z,102224.54
2022-12-01T05:12:40.672Z,102226.96
2022-12-01T05:13:44.886Z,102227.09
2022-12-01T05:14:49.102Z,102222.22
2022-12-01T05:15:53.549Z,102226.19
2022-12-01T05:16:57.873Z,102225.69
2022-12-01T05:18:02.109Z,102230.01
2022-12-01T05:19:06.345Z,102225.45
2022-12-01T05:20:10.606Z,102226.72
2022-12-01T05:21:14.819Z,102225.3
2022-12-01T05:23:04.153Z,102220.01
2022-12-01T05:24:10.029Z,102221.38
2022-12-01T05:25:14.286Z,102218.34
2022-12-01T05:26:18.503Z,102227.39
2022-12-01T05:27:22.722Z,102222.76
2022-12-01T05:28:26.942Z,102221.17
2022-12-01T05:29:31.172Z,102223.23
2022-12-01T05:30:35.414Z,102222.63
2022-12-01T05:31:39.930Z,102223.48
2022-12-01T05:32:44.460Z,102221.53
2022-12-01T05:33:48.702Z,102219.5
2022-12-01T05:34:52.945Z,102222.17
2022-12-01T05:35:57.159Z,102223.72
2022-12-01T05:37:01.370Z,102218.61
2022-12-01T05:38:09.186Z,102217.16
2022-12-01T05:39:13.434Z,102219.28
2022-12-01T05:40:17.672Z,102221.04
2022-12-01T05:41:21.949Z,102224.45
2022-12-01T05:42:26.185Z,102219.25
2022-12-01T05:43:30.854Z,102227.72
2022-12-01T05:44:35.109Z,102226.05
2022-12-01T05:45:39.455Z,102226.52
2022-12-01T05:46:43.784Z,102226.2
2022-12-01T05:47:48.084Z,102227.27
2022-12-01T05:48:52.292Z,102220.31
2022-12-01T05:50:05.039Z,102227.23
2022-12-01T05:51:09.798Z,102221.34
2022-12-01T05:52:14.025Z,102228.1
2022-12-01T05:53:18.261Z,102226.12
2022-12-01T05:54:22.467Z,102227.09
2022-12-01T05:55:26.691Z,102224.11
2022-12-01T05:56:30.943Z,102229.11
2022-12-01T05:57:35.293Z,102232.09
2022-12-01T05:58:39.522Z,102231
2022-12-01T05:59:43.889Z,102233.92
2022-12-01T06:00:48.125Z,102231.49
2022-12-01T06:01:52.476Z,102229.98
2022-12-01T06:02:56.813Z,102231.46
2022-12-01T06:04:01.285Z,102233.52
2022-12-01T06:05:05.616Z,102230.61
2022-12-01T06:06:09.830Z,102227.73
2022-12-01T06:07:15.055Z,102223.9
2022-12-01T06:08:19.267Z,102232.02
2022-12-01T06:09:23.500Z,102233.11
2022-12-01T06:10:27.744Z,102232.52
2022-12-01T06:11:31.995Z,102232.67
2022-12-01T06:12:36.224Z,102232.39
2022-12-01T06:13:40.479Z,102233.42
2022-12-01T06:14:44.690Z,102234.95
2022-12-01T06:15:48.949Z,102235.56
2022-12-01T06:16:53.283Z,102243.66
2022-12-01T06:17:57.592Z,102244.27
2022-12-01T06:19:01.853Z,102246.2
2022-12-01T06:20:06.077Z,102240.98
2022-12-01T06:21:10.321Z,102247.31
2022-12-01T06:22:14.565Z,102242.12
2022-12-01T06:23:18.805Z,102242.67
2022-12-01T06:24:23.116Z,102240.96
2022-12-01T06:25:27.598Z,102247.66
2022-12-01T06:26:31.840Z,102249.31
2022-12-01T06:27:36.069Z,102245.98
2022-12-01T06:28:40.316Z,102248.7
2022-12-01T06:29:44.543Z,102246.41
2022-12-01T06:30:48.775Z,102250.3
2022-12-01T06:31:53.145Z,102246.81
2022-12-01T06:32:57.418Z,102248.89
2022-12-01T06:34:01.647Z,102248.73
2022-12-01T06:35:05.883Z,102250.08
2022-12-01T06:36:10.157Z,102249.03
2022-12-01T06:37:14.379Z,102245.88
2022-12-01T06:38:18.630Z,102245.68
2022-12-01T06:39:22.897Z,102250.91
2022-12-01T06:40:27.108Z,102244.2
2022-12-01T06:41:31.358Z,102250.95
2022-12-01T06:42:35.597Z,102257.02
2022-12-01T06:43:39.872Z,102253.25
2022-12-01T06:44:44.118Z,102257.99
2022-12-01T06:45:48.504Z,102259.78
2022-12-01T06:46:52.842Z,102253.69
2022-12-01T06:47:57.139Z,102256.89
2022-12-01T06:49:01.395Z,102260.75
2022-12-01T06:50:05.606Z,102262.23
2022-12-01T06:51:11.957Z,102259.66
2022-12-01T06:52:16.174Z,102258.55
2022-12-01T06:53:20.419Z,102256.43
2022-12-01T06:54:24.646Z,102257.91
2022-12-01T06:55:29.218Z,102263.89
2022-12-01T06:56:34.264Z,102269.05
2022-12-01T06:57:39.409Z,102265.71
2022-12-01T06:58:44.577Z,102264.56
2022-12-01T06:59:50.367Z,102269.06
2022-12-01T07:00:55.765Z,102267.04
2022-12-01T07:02:00.348Z,102266.75
2022-12-01T07:03:04.683Z,102268.25
2022-12-01T07:04:08.949Z,102268.81
2022-12-01T07:05:13.202Z,102272.88
2022-12-01T07:06:17.424Z,102274.47
2022-12-01T07:07:21.807Z,102275.02
2022-12-01T07:08:26.078Z,102270.27
2022-12-01T07:09:30.317Z,102267.36
2022-12-01T07:10:34.581Z,102269.67
2022-12-01T07:11:38.810Z,102275.95
2022-12-01T07:12:43.022Z,102270.33
2022-12-01T07:13:47.231Z,102270.37
2022-12-01T07:14:51.464Z,102273.61
2022-12-01T07:15:55.709Z,102271.55
2022-12-01T07:17:00.197Z,102270.25
2022-12-01T07:18:04.648Z,102269.52
2022-12-01T07:19:08.849Z,102271.5
2022-12-01T07:20:13.051Z,102270.68
2022-12-01T07:21:17.393Z,102269.47
2022-12-01T07:22:21.614Z,102263.75
2022-12-01T07:23:25.937Z,102265.19
2022-12-01T07:24:30.138Z,102270.19
2022-12-01T07:25:34.378Z,102275.13
2022-12-01T07:26:41.624Z,102271.63
2022-12-01T07:27:45.885Z,102273.02
2022-12-01T07:28:50.105Z,102279.92
2022-12-01T07:29:54.320Z,102278.72
2022-12-01T07:30:58.646Z,102284.39
2022-12-01T07:32:03.088Z,102277.16
2022-12-01T07:33:07.304Z,102281.29
2022-12-01T07:34:11.550Z,102280.45
2022-12-01T07:35:15.774Z,102281.48
2022-12-01T07:36:20.020Z,102273.69
2022-12-01T07:37:24.281Z,102272.5
2022-12-01T07:38:28.497Z,102275.05
2022-12-01T07:39:32.727Z,102277.42
2022-12-01T07:40:36.949Z,102274.69
2022-12-01T07:41:41.183Z,102281.4
2022-12-01T07:42:45.471Z,102273.27
2022-12-01T07:43:49.704Z,102268.88
2022-12-01T07:44:53.931Z,102276.88
2022-12-01T07:45:58.274Z,102265.36
2022-12-01T07:47:02.724Z,102274.94
2022-12-01T07:48:06.993Z,102272.78
2022-12-01T07:49:11.189Z,102273.95
2022-12-01T07:50:15.437Z,102276.36
2022-12-01T07:51:19.647Z,102273
2022-12-01T07:52:23.905Z,102276.34
2022-12-01T07:53:28.149Z,102279.69
2022-12-01T07:54:32.370Z,102282.52
2022-12-01T07:55:36.637Z,102285.86
2022-12-01T07:56:40.878Z,102287.34
2022-12-01T07:57:45.077Z,102288.37
2022-12-01T07:58:49.309Z,102288.56
2022-12-01T07:59:53.727Z,102291.95
2022-12-01T08:00:57.944Z,102288.13
2022-12-01T08:02:02.368Z,102284.7
2022-12-01T08:03:06.797Z,102286.1
2022-12-01T08:04:11.211Z,102291.29
2022-12-01T08:05:15.560Z,102285.2
2022-12-01T08:06:19.772Z,102291.25
2022-12-01T08:07:29.922Z,102289.09
2022-12-01T08:08:34.390Z,102289.23
2022-12-01T08:09:38.608Z,102288.86
2022-12-01T08:10:42.834Z,102293.86
2022-12-01T08:11:47.078Z,102296.73
2022-12-01T08:12:53.828Z,102295.63
2022-12-01T08:13:58.070Z,102293.05
2022-12-01T08:15:02.287Z,102299.1
2022-12-01T08:16:06.726Z,102294.16
2022-12-01T08:17:11.186Z,102291.58
2022-12-01T08:18:15.489Z,102290.84
2022-12-01T08:19:19.722Z,102290.11
2022-12-01T08:20:25.208Z,102290.3
2022-12-01T08:21:29.468Z,102297.05
2022-12-01T08:22:33.720Z,102293.22
2022-12-01T08:23:37.963Z,102292.44
2022-12-01T08:24:42.204Z,102292.98
2022-12-01T08:25:46.414Z,102289.98
2022-12-01T08:26:50.649Z,102290.55
2022-12-01T08:27:54.888Z,102289.25
2022-12-01T08:28:59.151Z,102284.31
2022-12-01T08:30:03.425Z,102289.76
2022-12-01T08:31:07.757Z,102283.31
2022-12-01T08:32:12.123Z,102290.38
2022-12-01T08:33:16.309Z,102286.41
2022-12-01T08:34:20.524Z,102293.53
2022-12-01T08:35:25.068Z,102288.54
2022-12-01T08:36:29.302Z,102288.31
2022-12-01T08:37:33.540Z,102289.14
2022-12-01T08:38:37.771Z,102284.88
2022-12-01T08:39:42.007Z,102284.77
2022-12-01T08:40:46.276Z,102288.67
2022-12-01T08:41:50.540Z,102283.38
2022-12-01T08:42:54.781Z,102286.98
2022-12-01T08:44:01.214Z,102286.95
2022-12-01T08:45:05.862Z,102291.17
2022-12-01T08:46:10.289Z,102282.27
2022-12-01T08:47:19.525Z,102283.53
2022-12-01T08:48:23.746Z,102289.16
2022-12-01T08:49:27.998Z,102286.7
2022-12-01T08:50:32.241Z,102283.05
2022-12-01T08:51:36.524Z,102281.14
2022-12-01T08:52:40.762Z,102285.36
2022-12-01T08:53:46.758Z,102282.8
2022-12-01T08:54:50.972Z,102283.77
2022-12-01T08:55:55.177Z,102286.88
2022-12-01T08:56:59.413Z,102280.3
2022-12-01T08:58:03.654Z,102287.06
2022-12-01T08:59:07.902Z,102283.66
2022-12-01T09:00:12.118Z,102279.77
2022-12-01T09:01:16.568Z,102281.78
2022-12-01T09:02:22.202Z,102278.23
2022-12-01T09:03:26.703Z,102279.66
2022-12-01T09:04:30.925Z,102277.27
2022-12-01T09:05:35.157Z,102274.7
2022-12-01T09:06:39.427Z,102276.12
2022-12-01T09:07:43.742Z,102273.97
2022-12-01T09:08:48.085Z,102273.18
2022-12-01T09:09:52.911Z,102275.55
2022-12-01T09:10:57.194Z,102284.23
2022-12-01T09:12:01.483Z,102282.08
2022-12-01T09:13:05.730Z,102279.48
2022-12-01T09:14:09.975Z,102276.97
2022-12-01T09:15:14.278Z,102281.55
2022-12-01T09:16:18.672Z,102282.2
2022-12-01T09:17:23.026Z,102278.79
2022-12-01T09:18:27.223Z,102274.91
2022-12-01T09:19:31.459Z,102275.94
2022-12-01T09:20:35.691Z,102280.65
2022-12-01T09:21:39.924Z,102274.92
2022-12-01T09:22:44.144Z,102279.47
2022-12-01T09:23:48.420Z,102275.63
2022-12-01T09:24:52.651Z,102272.22
2022-12-01T09:25:56.926Z,102279.9
2022-12-01T09:27:01.184Z,102271.91
2022-12-01T09:28:05.386Z,102274.31
2022-12-01T09:29:09.613Z,102273.99
2022-12-01T09:30:13.829Z,102271.87
2022-12-01T09:31:18.181Z,102275.94
2022-12-01T09:32:22.555Z,102273.39
2022-12-01T09:33:26.830Z,102271.38
2022-12-01T09:34:31.074Z,102267.36
2022-12-01T09:35:35.315Z,102271.48
2022-12-01T09:36:39.539Z,102268.8
2022-12-01T09:37:43.810Z,102269.91
2022-12-01T09:38:48.095Z,102271.86
2022-12-01T09:39:52.736Z,102263.31
2022-12-01T09:40:57.078Z,102262.06
2022-12-01T09:42:03.869Z,102260.72
2022-12-01T09:43:12.454Z,102264.05
2022-12-01T09:44:17.721Z,102263.34
2022-12-01T09:45:21.934Z,102254.36
2022-12-01T09:46:26.301Z,102262
2022-12-01T09:47:30.734Z,102253.7
2022-12-01T09:48:34.973Z,102259.62
2022-12-01T09:49:39.206Z,102255.02
2022-12-01T09:50:43.427Z,102256.23
2022-12-01T09:51:47.717Z,102255.79
2022-12-01T09:52:51.952Z,102261.69
2022-12-01T09:53:56.172Z,102256.08
2022-12-01T09:55:02.673Z,102254.27
2022-12-01T09:56:13.762Z,102259.85
2022-12-01T09:57:18.124Z,102257.73
2022-12-01T09:58:22.389Z,102260.1
2022-12-01T09:59:26.608Z,102256.69
2022-12-01T10:00:30.845Z,102246.23
2022-12-01T10:01:35.367Z,102254.34
2022-12-01T10:02:39.766Z,102248.25
2022-12-01T10:03:44.034Z,102250.67
2022-12-01T10:04:48.351Z,102250.67
2022-12-01T10:06:28.328Z,102250.08
2022-12-01T10:07:33.106Z,102254.35
2022-12-01T10:08:37.440Z,102249.19
2022-12-01T10:09:41.721Z,102246.24
2022-12-01T10:10:45.944Z,102253.92
2022-12-01T10:11:50.179Z,102243.81
2022-12-01T10:12:54.482Z,102247.92
2022-12-01T10:13:58.721Z,102241.38
2022-12-01T10:15:03.015Z,102240.53
2022-12-01T10:16:07.431Z,102237.48
2022-12-01T10:17:11.747Z,102234.02
2022-12-01T10:18:15.982Z,102242.54
2022-12-01T10:19:20.197Z,102239.91
2022-12-01T10:20:24.523Z,102235.61
2022-12-01T10:21:28.735Z,102241.86
2022-12-01T10:22:32.958Z,102241.58
2022-12-01T10:23:37.179Z,102236.27
2022-12-01T10:24:41.413Z,102230.59
2022-12-01T10:25:45.627Z,102237.86
2022-12-01T10:26:49.882Z,102231.72
2022-12-01T10:27:54.106Z,102239.44
2022-12-01T10:28:58.316Z,102237.88
2022-12-01T10:30:02.568Z,102236.22
2022-12-01T10:31:06.943Z,102229.63
2022-12-01T10:32:11.329Z,102228.42
2022-12-01T10:33:15.582Z,102233.42
2022-12-01T10:34:19.787Z,102226.35
2022-12-01T10:35:24.026Z,102230.93
2022-12-01T10:36:28.286Z,102230.56
2022-12-01T10:37:32.662Z,102228.86
2022-12-01T10:38:36.996Z,102223.23
2022-12-01T10:39:41.219Z,102220.28
2022-12-01T10:40:47.981Z,102229.66
2022-12-01T10:41:52.207Z,102227.5
2022-12-01T10:42:56.442Z,102226.72
2022-12-01T10:44:00.671Z,102225.51
2022-12-01T10:45:04.909Z,102222.38
2022-12-01T10:46:09.358Z,102221.13
2022-12-01T10:47:13.703Z,102229.27
2022-12-01T10:48:17.978Z,102221.05
2022-12-01T10:49:22.277Z,102217.94
2022-12-01T10:50:26.527Z,102217.36
2022-12-01T10:51:30.784Z,102223.75
2022-12-01T10:52:35.009Z,102220.84
2022-12-01T10:53:39.265Z,102225.2
2022-12-01T10:54:43.499Z,102221.05
2022-12-01T10:55:49.192Z,102219.95
2022-12-01T10:56:53.477Z,102224.94
2022-12-01T10:57:57.806Z,102221.94
2022-12-01T10:59:02.033Z,102217.33
2022-12-01T11:00:06.265Z,102210.86
2022-12-01T11:01:10.853Z,102210.41
2022-12-01T11:02:15.896Z,102210.7
2022-12-01T11:03:23.227Z,102210.41
2022-12-01T11:04:27.801Z,102214.95
2022-12-01T11:05:32.027Z,102209.13
2022-12-01T11:06:36.255Z,102215.09
2022-12-01T11:07:40.567Z,102211.52
2022-12-01T11:08:44.855Z,102214.8
2022-12-01T11:09:49.869Z,102211.86
2022-12-01T11:10:54.578Z,102217.86
2022-12-01T11:11:58.830Z,102219.45
2022-12-01T11:13:03.084Z,102218.35
2022-12-01T11:14:07.307Z,102218.17
2022-12-01T11:15:11.546Z,102213.8
2022-12-01T11:16:15.820Z,102217.36
2022-12-01T11:17:20.350Z,102218.64
2022-12-01T11:18:24.586Z,102215.17
2022-12-01T11:19:29.226Z,102215.69
2022-12-01T11:20:33.764Z,102214.52
2022-12-01T11:21:38.169Z,102214.89
2022-12-01T11:22:42.804Z,102213.92
2022-12-01T11:23:47.126Z,102218.75
2022-12-01T11:24:51.339Z,102212.95
2022-12-01T11:25:55.576Z,102215.02
2022-12-01T11:26:59.801Z,102219.02
2022-12-01T11:28:04.081Z,102227.63
2022-12-01T11:29:08.367Z,102221.81
2022-12-01T11:30:12.628Z,102223.91
2022-12-01T11:31:17.074Z,102221.31
2022-12-01T11:32:21.435Z,102224.22
2022-12-01T11:33:25.687Z,102222.97
2022-12-01T11:34:29.921Z,102221.71
2022-12-01T11:35:34.147Z,102224.52
2022-12-01T11:36:38.400Z,102223.99
2022-12-01T11:37:46.932Z,102226.13
2022-12-01T11:39:31.018Z,102223.15
2022-12-01T11:40:35.234Z,102224.22
2022-12-01T11:41:39.476Z,102219.87
2022-12-01T11:42:43.735Z,102216.05
2022-12-01T11:44:02.722Z,102221.24
2022-12-01T12:16:50.126Z,102198.03
2022-12-01T12:17:57.081Z,102192.76
2022-12-01T12:19:01.468Z,102198.24
2022-12-01T12:20:10.496Z,102198.95
2022-12-01T12:21:15.921Z,102195.7
2022-12-01T12:22:20.190Z,102197.41
2022-12-01T12:23:24.400Z,102199.08
2022-12-01T12:24:28.624Z,102191.38
2022-12-01T12:25:32.872Z,102193.72
2022-12-01T12:26:37.099Z,102198.27
2022-12-01T12:27:41.533Z,102196.3
2022-12-01T12:28:45.786Z,102199.81
2022-12-01T12:29:50.801Z,102194.59
2022-12-01T12:30:55.909Z,102198.69
2022-12-01T12:32:00.242Z,102197.94
2022-12-01T12:33:04.479Z,102195.13
2022-12-01T12:34:08.741Z,102199.94
2022-12-01T12:35:12.965Z,102193.55
2022-12-01T12:36:17.185Z,102200.62
2022-12-01T12:37:21.410Z,102196.56
2022-12-01T12:38:28.545Z,102199.07
2022-12-01T12:39:32.803Z,102205.42
2022-12-01T12:40:37.026Z,102202.12
2022-12-01T12:41:41.315Z,102198.91
2022-12-01T12:42:45.598Z,102198.7
2022-12-01T12:43:49.802Z,102205.05
2022-12-01T12:44:54.062Z,102202.05
2022-12-01T12:45:58.482Z,102203.17
2022-12-01T12:47:02.883Z,102202.38
2022-12-01T12:48:07.121Z,102203.97
2022-12-01T12:49:26.744Z,102205.3
2022-12-01T12:50:31.020Z,102198.88
2022-12-01T12:51:35.339Z,102203.55